Comstock, New York
Current Conditions -  °F | °C
As of 9:53 AM on Thursday 23 Oct 2014 (Local Time) from KGFL Reporting Station
Overcast Overcast  
Wind Chill: 42°   Ceiling: 2100
Heat Index: 48°   Visibility: 10mi
Dew Point: 41°   Wind: 15mph
Humidity: 77%   Direction: 360°N
Pressure: 29.87"   Gusts: NA
Location:  43.46°N, 73.45°W
Report Text: KGFL 231353Z AUTO 36013KT 10SM OVC021 09/05 A2987 RMK AO2 SLP118 T00890050
Loading
Personal Weather Stations






























Interactive Weather Map
Tropical Storm Tracking
New forecast layout! Learn more

10-Day Weather Forecast

Advertisements
Track Severe Weather on mobile